CAN9 weather

Vanderhoof (District) Seaplane Base
Vanderhoof, British Columbia, Canada

Public forecast

Using degrees Celsius for public forecast. Weather courtesy of forecast.io.

METAR (pilot weather report)

Closest report is Prince George Airport, 47.2 nm (87.3 km) E. Retrieved 2019/08/23 10:30 UTC (0 seconds ago):

CYXS 231030Z AUTO 00000KT 9SM BKN060 OVC078 10/09 A2986 RMK SLP123

TAF (pilot weather forecast)

Closest forecast is Prince George Airport, 47.2 nm (87.3 km) E. Retrieved 2019/08/23 07:39 UTC (3 hours ago):

TAF CYXS 230638Z 2307/2319 18005KT P6SM OVC070 TEMPO 2307/2311 P6SM -RA OVC050 FM231100 VRB03KT P6SM -RA SCT020 OVC050 TEMPO 2311/2319 5SM -RA BR BKN020 OVC040 BECMG 2313/2315 20008KT RMK FCST BASED ON AUTO OBS. NXT FCST BY 231300Z